createdAt,value
2023-03-06T00:00:53.670Z,66.60
2023-03-06T00:03:24.049Z,66.60
2023-03-06T00:05:50.761Z,66.80
2023-03-06T00:08:20.188Z,66.80
2023-03-06T00:10:49.028Z,66.70
2023-03-06T00:13:23.593Z,66.60
2023-03-06T00:15:59.706Z,66.70
2023-03-06T00:18:28.712Z,66.50
2023-03-06T00:20:59.833Z,66.40
2023-03-06T00:23:27.385Z,66.60
2023-03-06T00:25:54.001Z,66.50
2023-03-06T00:28:20.600Z,66.50
2023-03-06T00:30:49.330Z,66.60
2023-03-06T00:33:16.209Z,66.70
2023-03-06T00:35:45.473Z,66.50
2023-03-06T00:38:15.229Z,66.60
2023-03-06T00:40:41.798Z,66.70
2023-03-06T00:43:16.843Z,66.60
2023-03-06T00:45:43.446Z,66.70
2023-03-06T00:48:24.620Z,66.60
2023-03-06T00:50:51.930Z,66.60
2023-03-06T00:53:19.325Z,66.60
2023-03-06T00:55:46.020Z,66.70
2023-03-06T00:58:15.534Z,66.80
2023-03-06T01:00:42.303Z,67.00
2023-03-06T01:03:12.502Z,67.10
2023-03-06T01:05:45.905Z,67.80
2023-03-06T01:08:16.091Z,67.20
2023-03-06T01:10:45.173Z,67.40
2023-03-06T01:13:13.794Z,67.20
2023-03-06T01:15:40.570Z,67.20
2023-03-06T01:18:09.378Z,67.30
2023-03-06T01:20:39.455Z,67.30
2023-03-06T01:23:07.409Z,67.40
2023-03-06T01:25:36.161Z,67.50
2023-03-06T01:28:05.021Z,67.50
2023-03-06T01:30:40.073Z,67.50
2023-03-06T01:33:11.522Z,67.60
2023-03-06T01:35:41.742Z,67.50
2023-03-06T01:38:11.629Z,67.50
2023-03-06T01:40:38.777Z,67.40
2023-03-06T01:43:23.862Z,67.50
2023-03-06T01:45:57.043Z,67.90
2023-03-06T01:48:26.668Z,67.50
2023-03-06T01:50:59.143Z,67.50
2023-03-06T01:53:28.238Z,67.50
2023-03-06T01:55:55.283Z,67.40
2023-03-06T01:58:26.365Z,67.50
2023-03-06T02:00:53.203Z,67.50
2023-03-06T02:03:25.107Z,67.50
2023-03-06T02:05:59.917Z,67.50
2023-03-06T02:08:31.356Z,67.50
2023-03-06T02:11:22.093Z,67.50
2023-03-06T02:13:53.340Z,67.70
2023-03-06T02:16:26.687Z,67.50
2023-03-06T02:19:03.898Z,67.50
2023-03-06T02:21:37.246Z,67.50
2023-03-06T02:24:36.194Z,67.50
2023-03-06T02:27:07.318Z,68.00
2023-03-06T02:29:35.525Z,67.50
2023-03-06T02:32:13.771Z,67.40
2023-03-06T02:34:40.327Z,67.40
2023-03-06T02:37:09.230Z,67.50
2023-03-06T02:39:44.042Z,67.50
2023-03-06T02:42:19.001Z,67.30
2023-03-06T02:44:47.768Z,67.50
2023-03-06T02:47:17.135Z,67.20
2023-03-06T02:49:47.987Z,67.40
2023-03-06T02:52:14.685Z,67.50
2023-03-06T02:54:42.385Z,67.50
2023-03-06T02:57:12.151Z,67.50
2023-03-06T02:59:41.255Z,67.50
2023-03-06T03:02:09.492Z,67.40
2023-03-06T03:04:38.731Z,67.40
2023-03-06T03:07:08.810Z,67.40
2023-03-06T03:09:39.784Z,67.70
2023-03-06T03:12:07.019Z,67.30
2023-03-06T03:14:35.759Z,67.40
2023-03-06T03:17:04.909Z,67.40
2023-03-06T03:19:35.923Z,67.40
2023-03-06T03:22:02.686Z,67.40
2023-03-06T03:24:29.264Z,67.40
2023-03-06T03:27:02.037Z,67.40
2023-03-06T03:29:28.871Z,67.50
2023-03-06T03:31:58.928Z,67.40
2023-03-06T03:34:29.207Z,67.40
2023-03-06T03:36:58.108Z,67.40
2023-03-06T03:39:26.899Z,67.60
2023-03-06T03:42:00.131Z,67.60
2023-03-06T03:44:27.794Z,67.70
2023-03-06T03:46:59.822Z,67.40
2023-03-06T03:49:26.529Z,67.40
2023-03-06T03:51:57.285Z,67.40
2023-03-06T03:54:29.588Z,67.50
2023-03-06T03:56:56.775Z,67.60
2023-03-06T03:59:36.630Z,67.50
2023-03-06T04:02:15.770Z,67.60
2023-03-06T04:04:55.729Z,67.50
2023-03-06T04:07:25.357Z,67.70
2023-03-06T04:09:54.247Z,67.70
2023-03-06T04:12:21.892Z,67.50
2023-03-06T04:14:48.498Z,67.40
2023-03-06T04:17:16.427Z,67.50
2023-03-06T04:19:47.655Z,67.40
2023-03-06T04:22:14.433Z,67.40
2023-03-06T04:24:43.244Z,67.40
2023-03-06T04:27:09.915Z,67.40
2023-03-06T04:29:36.579Z,67.20
2023-03-06T04:32:12.276Z,67.20
2023-03-06T04:34:39.692Z,67.20
2023-03-06T04:37:06.814Z,67.30
2023-03-06T04:39:38.090Z,67.20
2023-03-06T04:42:07.348Z,67.10
2023-03-06T04:44:36.574Z,66.90
2023-03-06T04:47:03.441Z,66.70
2023-03-06T04:49:30.337Z,66.70
2023-03-06T04:51:57.967Z,66.60
2023-03-06T04:54:28.805Z,66.50
2023-03-06T04:56:55.607Z,66.60
2023-03-06T04:59:22.166Z,66.60
2023-03-06T05:01:48.783Z,66.60
2023-03-06T05:04:15.396Z,66.60
2023-03-06T05:06:46.202Z,66.70
2023-03-06T05:09:17.096Z,66.70
2023-03-06T05:11:46.581Z,66.70
2023-03-06T05:14:20.694Z,66.60
2023-03-06T05:16:53.536Z,66.60
2023-03-06T05:19:20.133Z,66.60
2023-03-06T05:21:48.193Z,66.60
2023-03-06T05:24:14.937Z,66.60
2023-03-06T05:26:47.200Z,66.70
2023-03-06T05:29:13.745Z,66.60
2023-03-06T05:31:42.822Z,66.90
2023-03-06T05:34:13.774Z,66.30
2023-03-06T05:36:42.848Z,66.50
2023-03-06T05:39:09.741Z,66.50
2023-03-06T05:41:36.278Z,66.70
2023-03-06T05:44:13.150Z,66.80
2023-03-06T05:46:42.089Z,66.90
2023-03-06T05:49:11.598Z,67.10
2023-03-06T05:51:41.780Z,67.10
2023-03-06T05:54:10.732Z,67.10
2023-03-06T05:56:40.284Z,67.10
2023-03-06T05:59:15.899Z,67.20
2023-03-06T06:01:42.445Z,67.40
2023-03-06T06:04:11.398Z,67.20
2023-03-06T06:06:45.103Z,67.20
2023-03-06T06:09:16.971Z,67.10
2023-03-06T06:11:47.500Z,67.00
2023-03-06T06:14:14.684Z,67.00
2023-03-06T06:16:47.397Z,67.00
2023-03-06T06:19:20.398Z,67.10
2023-03-06T06:21:52.814Z,67.10
2023-03-06T06:24:24.089Z,67.20
2023-03-06T06:26:55.080Z,67.10
2023-03-06T06:29:24.437Z,67.10
2023-03-06T06:32:03.229Z,67.10
2023-03-06T06:34:32.247Z,67.40
2023-03-06T06:37:07.722Z,67.40
2023-03-06T06:39:34.266Z,67.40
2023-03-06T06:42:25.931Z,67.40
2023-03-06T06:44:51.295Z,67.40
2023-03-06T06:47:22.946Z,67.40
2023-03-06T06:49:54.451Z,67.50
2023-03-06T06:52:33.712Z,67.40
2023-03-06T06:55:02.821Z,67.50
2023-03-06T06:57:29.431Z,67.70
2023-03-06T06:59:58.411Z,67.70
2023-03-06T07:02:27.591Z,67.80
2023-03-06T07:05:04.305Z,67.60
2023-03-06T07:07:37.330Z,67.50
2023-03-06T07:10:15.445Z,67.40
2023-03-06T07:12:42.623Z,67.50
2023-03-06T07:15:11.871Z,67.40
2023-03-06T07:17:47.718Z,67.40
2023-03-06T07:20:16.298Z,67.40
2023-03-06T07:22:50.689Z,67.40
2023-03-06T07:25:23.392Z,67.50
2023-03-06T07:27:54.643Z,67.70
2023-03-06T07:30:28.010Z,67.70
2023-03-06T07:32:58.794Z,67.40
2023-03-06T07:35:26.040Z,67.50
2023-03-06T07:37:55.128Z,67.60
2023-03-06T07:40:24.492Z,67.60
2023-03-06T07:43:06.106Z,67.60
2023-03-06T07:45:44.511Z,67.50
2023-03-06T07:48:22.214Z,67.30
2023-03-06T07:51:03.922Z,67.30
2023-03-06T07:53:42.178Z,67.50
2023-03-06T07:56:09.440Z,67.30
2023-03-06T07:58:38.117Z,67.60
2023-03-06T08:01:10.338Z,67.30
2023-03-06T08:03:37.417Z,67.40
2023-03-06T08:06:27.526Z,67.40
2023-03-06T08:09:03.083Z,67.50
2023-03-06T08:11:38.610Z,67.10
2023-03-06T08:14:06.471Z,67.10
2023-03-06T08:16:33.125Z,67.10
2023-03-06T08:19:01.870Z,67.00
2023-03-06T08:21:28.672Z,66.90
2023-03-06T08:23:55.750Z,66.90
2023-03-06T08:26:24.929Z,66.80
2023-03-06T08:29:04.161Z,66.60
2023-03-06T08:31:40.362Z,66.60
2023-03-06T08:34:11.340Z,66.50
2023-03-06T08:36:40.447Z,66.60
2023-03-06T08:39:08.033Z,66.70
2023-03-06T08:41:35.469Z,66.60
2023-03-06T08:44:06.773Z,66.70
2023-03-06T08:46:34.517Z,66.80
2023-03-06T08:49:05.664Z,66.70
2023-03-06T08:51:33.721Z,66.60
2023-03-06T08:54:00.422Z,66.50
2023-03-06T08:56:30.071Z,66.60
2023-03-06T08:59:00.587Z,66.50
2023-03-06T09:01:29.777Z,66.30
2023-03-06T09:04:01.824Z,66.00
2023-03-06T09:06:39.387Z,65.90
2023-03-06T09:09:09.394Z,65.80
2023-03-06T09:11:41.638Z,65.80
2023-03-06T09:14:08.233Z,65.70
2023-03-06T09:16:38.097Z,65.60
2023-03-06T09:19:04.709Z,65.80
2023-03-06T09:21:34.022Z,65.80
2023-03-06T09:24:03.240Z,65.90
2023-03-06T09:26:45.107Z,65.90
2023-03-06T09:29:13.282Z,65.90
2023-03-06T09:31:41.097Z,66.00
2023-03-06T09:34:11.956Z,66.00
2023-03-06T09:36:54.989Z,66.10
2023-03-06T09:39:23.881Z,66.00
2023-03-06T09:41:56.619Z,66.10
2023-03-06T09:44:26.066Z,66.30
2023-03-06T09:47:10.540Z,66.40
2023-03-06T09:50:10.902Z,67.00
2023-03-06T09:53:02.607Z,66.90
2023-03-06T09:55:37.318Z,66.90
2023-03-06T09:58:25.235Z,66.50
2023-03-06T10:01:11.011Z,66.80
2023-03-06T10:03:49.348Z,66.80
2023-03-06T10:06:31.229Z,66.80
2023-03-06T10:09:18.490Z,67.00
2023-03-06T10:12:16.089Z,66.90
2023-03-06T10:14:57.796Z,67.10
2023-03-06T10:17:29.113Z,67.00
2023-03-06T10:19:57.991Z,66.80
2023-03-06T10:22:36.591Z,66.70
2023-03-06T10:25:27.741Z,66.80
2023-03-06T10:28:05.304Z,66.90
2023-03-06T10:31:00.452Z,66.90
2023-03-06T10:33:48.346Z,67.00
2023-03-06T10:36:19.561Z,66.70
2023-03-06T10:38:48.421Z,66.40
2023-03-06T10:41:38.075Z,66.30
2023-03-06T10:44:04.686Z,66.30
2023-03-06T10:46:45.229Z,66.10
2023-03-06T10:49:34.468Z,66.10
2023-03-06T10:52:22.625Z,66.00
2023-03-06T10:54:50.639Z,66.00
2023-03-06T10:57:24.108Z,65.90
2023-03-06T10:59:56.431Z,65.80
2023-03-06T11:02:31.304Z,65.90
2023-03-06T11:05:01.391Z,66.00
2023-03-06T11:07:36.873Z,65.90
2023-03-06T11:10:17.928Z,65.70
2023-03-06T11:13:01.247Z,65.60
2023-03-06T11:15:29.369Z,65.30
2023-03-06T11:18:04.320Z,65.20
2023-03-06T11:20:52.385Z,65.20
2023-03-06T11:23:40.543Z,65.40
2023-03-06T11:26:19.515Z,65.20
2023-03-06T11:29:01.352Z,65.30
2023-03-06T11:31:39.310Z,65.30
2023-03-06T11:34:18.442Z,65.40
2023-03-06T11:36:54.476Z,65.50
2023-03-06T11:39:36.238Z,65.60
2023-03-06T11:42:29.363Z,65.80
2023-03-06T11:45:30.753Z,66.00
2023-03-06T11:48:15.825Z,65.90
2023-03-06T11:50:48.506Z,65.90
2023-03-06T11:53:19.747Z,65.80
2023-03-06T11:56:10.828Z,65.80
2023-03-06T11:59:21.919Z,66.00
2023-03-06T12:02:21.484Z,65.90
2023-03-06T12:05:21.015Z,65.90
2023-03-06T12:08:17.300Z,66.00
2023-03-06T12:10:51.536Z,66.20
2023-03-06T12:13:43.103Z,66.00
2023-03-06T12:16:29.628Z,65.80
2023-03-06T12:19:25.960Z,65.60
2023-03-06T12:22:01.574Z,65.40
2023-03-06T12:25:07.635Z,65.10
2023-03-06T12:27:52.793Z,65.00
2023-03-06T12:30:51.643Z,64.70
2023-03-06T12:33:37.074Z,64.90
2023-03-06T12:36:33.290Z,64.70
2023-03-06T12:39:22.503Z,64.50
2023-03-06T12:42:23.236Z,64.40
2023-03-06T12:45:10.809Z,64.50
2023-03-06T12:47:44.239Z,64.50
2023-03-06T12:50:45.975Z,64.60
2023-03-06T12:53:28.500Z,64.60
2023-03-06T12:55:58.686Z,64.50
2023-03-06T12:58:33.214Z,64.70
2023-03-06T13:01:39.060Z,64.90
2023-03-06T13:04:29.429Z,64.60
2023-03-06T13:07:14.738Z,64.70
2023-03-06T13:10:15.439Z,64.50
2023-03-06T13:13:19.627Z,64.80
2023-03-06T13:16:29.124Z,64.80
2023-03-06T13:19:03.710Z,64.70
2023-03-06T13:21:42.510Z,64.50
2023-03-06T13:24:22.861Z,64.50
2023-03-06T13:27:01.041Z,64.00
2023-03-06T13:29:36.754Z,63.90
2023-03-06T13:32:15.010Z,64.00
2023-03-06T13:34:53.780Z,63.80
2023-03-06T13:37:37.094Z,63.80
2023-03-06T13:40:03.839Z,63.90
2023-03-06T13:42:43.427Z,64.00
2023-03-06T13:45:41.809Z,63.80
2023-03-06T13:48:43.160Z,64.00
2023-03-06T13:51:24.270Z,63.90
2023-03-06T13:54:24.392Z,64.00
2023-03-06T13:57:05.825Z,63.70
2023-03-06T14:00:09.562Z,63.80
2023-03-06T14:03:03.606Z,64.00
2023-03-06T14:05:51.443Z,63.90
2023-03-06T14:08:24.471Z,64.90
2023-03-06T14:11:09.138Z,65.80
2023-03-06T14:13:47.488Z,64.70
2023-03-06T14:16:21.791Z,65.00
2023-03-06T14:18:53.280Z,63.70
2023-03-06T14:21:44.389Z,62.70
2023-03-06T14:24:19.635Z,59.20
2023-03-06T14:26:50.098Z,58.70
2023-03-06T14:29:28.320Z,58.50
2023-03-06T14:32:04.592Z,57.50
2023-03-06T14:34:41.020Z,56.80
2023-03-06T14:37:20.400Z,56.60
2023-03-06T14:39:58.544Z,56.10
2023-03-06T14:42:29.373Z,56.10
2023-03-06T14:45:06.978Z,55.00
2023-03-06T14:47:36.806Z,53.90
2023-03-06T14:50:30.338Z,54.10
2023-03-06T14:53:05.541Z,53.10
2023-03-06T14:55:36.756Z,53.50
2023-03-06T14:58:10.021Z,53.60
2023-03-06T15:00:50.178Z,54.10
2023-03-06T15:03:27.681Z,54.80
2023-03-06T15:05:54.913Z,55.50
2023-03-06T15:08:27.465Z,55.30
2023-03-06T15:11:02.990Z,54.90
2023-03-06T15:13:33.530Z,55.10
2023-03-06T15:16:06.554Z,54.30
2023-03-06T15:18:56.918Z,54.60
2023-03-06T15:21:28.622Z,53.90
2023-03-06T15:24:00.364Z,54.60
2023-03-06T15:26:40.992Z,55.00
2023-03-06T15:29:10.749Z,55.10
2023-03-06T15:31:44.535Z,55.00
2023-03-06T15:34:23.288Z,55.10
2023-03-06T15:36:59.585Z,54.70
2023-03-06T15:39:36.082Z,55.00
2023-03-06T15:42:22.582Z,54.90
2023-03-06T15:44:56.194Z,54.60
2023-03-06T15:47:27.613Z,55.10
2023-03-06T15:49:58.802Z,55.10
2023-03-06T15:52:27.669Z,56.00
2023-03-06T15:54:59.753Z,55.70
2023-03-06T15:57:30.520Z,56.00
2023-03-06T16:00:01.822Z,56.30
2023-03-06T16:02:38.042Z,56.50
2023-03-06T16:05:14.526Z,56.60
2023-03-06T16:07:41.161Z,56.70
2023-03-06T16:10:13.511Z,57.00
2023-03-06T16:13:02.868Z,57.00
2023-03-06T16:15:32.925Z,57.20
2023-03-06T16:18:02.212Z,57.30
2023-03-06T16:20:30.258Z,57.40
2023-03-06T16:22:57.029Z,57.50
2023-03-06T16:25:26.278Z,57.80
2023-03-06T16:28:00.979Z,58.10
2023-03-06T16:30:32.911Z,58.30
2023-03-06T16:33:05.320Z,58.30
2023-03-06T16:35:37.362Z,58.50
2023-03-06T16:38:04.371Z,58.70
2023-03-06T16:40:42.837Z,58.80
2023-03-06T16:43:17.372Z,58.90
2023-03-06T16:45:44.569Z,59.00
2023-03-06T16:48:15.632Z,59.20
2023-03-06T16:50:42.374Z,59.40
2023-03-06T16:53:13.528Z,59.60
2023-03-06T16:55:40.091Z,59.80
2023-03-06T16:58:10.045Z,60.00
2023-03-06T17:00:36.878Z,60.10
2023-03-06T17:03:03.825Z,60.30
2023-03-06T17:05:35.408Z,60.30
2023-03-06T17:08:05.796Z,60.40
2023-03-06T17:10:32.459Z,60.40
2023-03-06T17:12:59.185Z,60.30
2023-03-06T17:15:26.317Z,60.50
2023-03-06T17:17:53.168Z,60.60
2023-03-06T17:20:26.670Z,60.60
2023-03-06T17:22:55.867Z,60.80
2023-03-06T17:25:22.845Z,60.90
2023-03-06T17:27:58.285Z,60.90
2023-03-06T17:30:27.322Z,61.00
2023-03-06T17:32:56.840Z,61.10
2023-03-06T17:35:23.426Z,61.20
2023-03-06T17:37:51.250Z,61.30
2023-03-06T17:40:20.037Z,61.20
2023-03-06T17:42:46.618Z,61.30
2023-03-06T17:45:16.081Z,61.30
2023-03-06T17:47:55.418Z,61.30
2023-03-06T17:50:25.165Z,61.30
2023-03-06T17:52:54.098Z,61.10
2023-03-06T17:55:24.254Z,60.80
2023-03-06T17:57:59.479Z,60.60
2023-03-06T18:00:26.160Z,60.40
2023-03-06T18:02:58.699Z,60.20
2023-03-06T18:05:28.896Z,60.00
2023-03-06T18:07:58.168Z,59.80
2023-03-06T18:10:27.365Z,59.60
2023-03-06T18:12:58.876Z,59.50
2023-03-06T18:15:33.423Z,59.30
2023-03-06T18:18:00.128Z,59.30
2023-03-06T18:20:33.984Z,59.20
2023-03-06T18:23:03.416Z,59.20
2023-03-06T18:25:31.282Z,59.20
2023-03-06T18:28:02.123Z,59.20
2023-03-06T18:30:29.066Z,59.10
2023-03-06T18:33:00.500Z,59.10
2023-03-06T18:35:35.986Z,59.20
2023-03-06T18:38:04.457Z,59.20
2023-03-06T18:40:33.477Z,59.10
2023-03-06T18:43:00.025Z,59.00
2023-03-06T18:45:28.712Z,58.80
2023-03-06T18:48:00.546Z,58.70
2023-03-06T18:50:27.108Z,58.60
2023-03-06T18:52:53.692Z,58.50
2023-03-06T18:55:20.242Z,58.40
2023-03-06T18:57:46.770Z,58.30
2023-03-06T19:00:19.150Z,58.30
2023-03-06T19:02:47.969Z,58.30
2023-03-06T19:05:14.799Z,58.30
2023-03-06T19:07:41.350Z,58.30
2023-03-06T19:10:10.538Z,58.20
2023-03-06T19:12:39.403Z,58.20
2023-03-06T19:15:09.398Z,58.00
2023-03-06T19:17:40.997Z,58.10
2023-03-06T19:20:10.363Z,58.00
2023-03-06T19:22:37.132Z,58.10
2023-03-06T19:25:10.760Z,58.10
2023-03-06T19:27:38.965Z,58.10
2023-03-06T19:30:10.791Z,58.10
2023-03-06T19:32:37.664Z,58.20
2023-03-06T19:35:06.765Z,58.30
2023-03-06T19:37:37.086Z,58.20
2023-03-06T19:40:07.001Z,58.10
2023-03-06T19:42:34.547Z,58.00
2023-03-06T19:45:01.219Z,58.20
2023-03-06T19:47:33.176Z,58.00
2023-03-06T19:50:02.237Z,58.10
2023-03-06T19:52:28.802Z,58.10
2023-03-06T19:54:57.819Z,58.10
2023-03-06T19:57:28.252Z,57.80
2023-03-06T19:59:56.057Z,57.70
2023-03-06T20:02:26.446Z,57.70
2023-03-06T20:04:57.007Z,58.40
2023-03-06T20:07:24.030Z,57.80
2023-03-06T20:09:51.016Z,57.80
2023-03-06T20:12:17.726Z,57.90
2023-03-06T20:14:46.005Z,57.90
2023-03-06T20:17:15.158Z,57.90
2023-03-06T20:19:46.017Z,58.00
2023-03-06T20:22:15.087Z,58.10
2023-03-06T20:24:41.706Z,58.20
2023-03-06T20:27:08.296Z,58.30
2023-03-06T20:29:35.829Z,58.30
2023-03-06T20:32:05.499Z,58.40
2023-03-06T20:34:32.067Z,58.40
2023-03-06T20:36:58.761Z,58.50
2023-03-06T20:39:29.462Z,58.50
2023-03-06T20:41:56.092Z,58.60
2023-03-06T20:44:23.012Z,58.70
2023-03-06T20:46:51.807Z,58.80
2023-03-06T20:49:21.577Z,59.00
2023-03-06T20:51:51.131Z,59.20
2023-03-06T20:54:17.845Z,59.40
2023-03-06T20:56:47.991Z,59.80
2023-03-06T20:59:17.315Z,60.30
2023-03-06T21:01:45.557Z,60.60
2023-03-06T21:04:14.818Z,61.00
2023-03-06T21:06:45.188Z,61.20
2023-03-06T21:09:13.505Z,61.70
2023-03-06T21:11:40.722Z,62.00
2023-03-06T21:14:13.408Z,62.50
2023-03-06T21:16:43.623Z,62.60
2023-03-06T21:19:10.669Z,62.80
2023-03-06T21:21:37.317Z,63.00
2023-03-06T21:24:05.303Z,63.30
2023-03-06T21:26:36.448Z,63.50
2023-03-06T21:29:06.256Z,63.70
2023-03-06T21:31:35.868Z,63.80
2023-03-06T21:34:06.157Z,63.90
2023-03-06T21:36:33.002Z,64.10
2023-03-06T21:39:05.993Z,64.20
2023-03-06T21:41:34.426Z,64.40
2023-03-06T21:44:06.022Z,64.40
2023-03-06T21:46:36.203Z,64.60
2023-03-06T21:49:04.776Z,64.70
2023-03-06T21:51:31.519Z,64.60
2023-03-06T21:53:58.854Z,64.60
2023-03-06T21:56:27.821Z,64.70
2023-03-06T21:58:55.262Z,65.00
2023-03-06T22:01:30.594Z,64.90
2023-03-06T22:03:58.355Z,65.10
2023-03-06T22:06:28.746Z,65.10
2023-03-06T22:08:59.710Z,65.40
2023-03-06T22:11:29.601Z,65.60
2023-03-06T22:13:58.847Z,65.60
2023-03-06T22:16:29.413Z,65.90
2023-03-06T22:18:58.850Z,66.00
2023-03-06T22:21:28.843Z,66.70
2023-03-06T22:23:57.580Z,66.10
2023-03-06T22:26:29.314Z,66.40
2023-03-06T22:29:02.720Z,66.50
2023-03-06T22:31:29.431Z,66.70
2023-03-06T22:34:00.340Z,66.80
2023-03-06T22:36:31.505Z,67.10
2023-03-06T22:39:02.303Z,67.20
2023-03-06T22:41:34.448Z,67.60
2023-03-06T22:44:04.848Z,67.50
2023-03-06T22:46:33.779Z,67.50
2023-03-06T22:49:01.135Z,67.90
2023-03-06T22:51:33.412Z,67.80
2023-03-06T22:53:59.875Z,67.90
2023-03-06T22:56:27.796Z,68.40
2023-03-06T22:58:54.440Z,67.40
2023-03-06T23:01:28.691Z,67.90
2023-03-06T23:03:57.947Z,68.10
2023-03-06T23:06:26.720Z,68.40
2023-03-06T23:08:59.709Z,68.50
2023-03-06T23:11:30.499Z,68.80
2023-03-06T23:14:19.652Z,68.60
2023-03-06T23:17:06.372Z,68.80
2023-03-06T23:19:56.471Z,68.80
2023-03-06T23:22:49.053Z,69.00
2023-03-06T23:25:34.679Z,69.20
2023-03-06T23:28:01.690Z,69.30
2023-03-06T23:30:30.630Z,69.60
2023-03-06T23:33:00.225Z,69.70
2023-03-06T23:35:30.900Z,69.70
2023-03-06T23:37:57.547Z,70.00
2023-03-06T23:40:26.906Z,70.20
2023-03-06T23:43:07.004Z,70.30
2023-03-06T23:45:33.722Z,71.20
2023-03-06T23:48:00.267Z,70.40
2023-03-06T23:50:29.115Z,70.50
2023-03-06T23:53:01.136Z,70.50
2023-03-06T23:55:27.767Z,70.70
2023-03-06T23:58:01.087Z,70.70
